CST,Max TemperatureF,Mean TemperatureF,Min TemperatureF,Max Dew PointF,MeanDew PointF,Min DewpointF,Max Humidity, Mean Humidity, Min Humidity, Max Sea Level PressureIn, Mean Sea Level PressureIn, Min Sea Level PressureIn, Max VisibilityMiles, Mean VisibilityMiles, Min VisibilityMiles, Max Wind SpeedMPH, Mean Wind SpeedMPH, Max Gust SpeedMPH,PrecipitationIn, CloudCover, Events, WindDirDegrees
2013-12-1,55,47,39,48,43,36,93,82,72,30.13,30.02,29.88,10,8,0,8,2,,0.00,6,,189
2013-12-2,62,50,37,48,42,36,93,78,52,29.88,29.75,29.67,10,5,0,9,1,,0.00,3,,198
2013-12-3,69,52,35,50,43,34,93,77,35,29.67,29.60,29.53,10,6,0,10,5,,0.00,2,,156
2013-12-4,60,46,32,46,40,27,93,78,55,29.95,29.70,29.54,10,7,2,20,8,26,0.00,3,,254
2013-12-5,30,24,19,27,17,12,86,75,55,30.23,30.13,29.95,10,7,1,15,11,20,0.24,8,,4
2013-12-6,19,17,14,14,10,3,86,72,58,30.50,30.32,30.19,10,6,1,16,12,21,0.08,8,,16
2013-12-7,23,14,5,10,4,-2,73,60,43,30.57,30.45,30.25,10,10,10,15,8,17,0.00,2,,58
2013-12-8,28,24,21,25,20,9,93,81,58,30.23,30.08,29.97,10,5,1,13,7,16,0.07,8,,199
2013-12-9,26,22,19,21,15,10,86,71,54,30.30,30.23,30.14,10,10,5,12,7,,0.02,5,,357
2013-12-10,33,22,10,16,12,7,86,70,44,30.40,30.31,30.23,10,8,2,10,6,,0.03,2,,220
2013-12-11,33,24,15,25,16,10,93,72,52,30.58,30.44,30.24,10,8,0,14,4,,0.01,1,,27
2013-12-12,39,26,14,19,14,7,86,60,41,30.56,30.44,30.24,10,10,10,12,5,,0.01,0,,189
2013-12-13,37,32,26,34,27,19,93,76,60,30.23,29.99,29.82,10,8,1,13,5,22,0.55,6,,166
2013-12-14,35,30,24,34,28,19,93,85,74,30.21,30.02,29.80,10,5,1,15,6,22,0.28,7,,331
2013-12-15,48,34,19,32,24,16,93,71,50,30.24,30.17,30.11,10,7,0,12,4,,0.00,0,,210
2013-12-16,60,50,39,34,30,28,65,54,31,30.14,30.09,30.06,10,10,10,12,8,,0.00,0,,219
2013-12-17,57,44,30,36,29,23,87,58,33,30.29,30.22,30.12,10,10,10,15,5,22,0.00,0,,304
2013-12-18,60,45,30,36,30,23,80,56,36,30.27,30.10,29.95,10,10,10,22,7,28,0.00,0,,174
2013-12-19,60,56,51,54,46,36,82,69,51,29.95,29.82,29.72,10,10,10,22,13,28,0.00,5,,188
2013-12-20,62,47,32,55,39,28,87,82,72,29.88,29.81,29.72,10,5,0,17,11,24,0.11,8,Thunderstorm,292
2013-12-21,39,36,32,37,33,28,93,88,81,29.78,29.65,29.47,10,7,1,16,7,22,1.15,8,Thunderstorm,16
2013-12-22,33,30,26,30,24,19,93,80,74,30.31,30.03,29.70,10,8,2,15,10,17,0.00,8,,308
2013-12-23,28,22,15,19,17,10,86,76,59,30.53,30.45,30.32,10,9,2,10,6,,0.00,7,,1
2013-12-24,42,28,15,25,18,10,93,71,49,30.53,30.37,30.22,10,8,4,13,7,20,0.00,2,,139
2013-12-25,42,33,24,30,26,18,93,77,61,30.37,30.31,30.25,10,8,0,10,3,,0.00,2,,292
2013-12-26,50,34,19,32,24,16,93,68,37,30.38,30.33,30.28,10,7,0,14,4,,0.00,2,,197
2013-12-27,55,40,26,34,26,21,93,63,36,30.41,30.34,30.29,10,10,8,12,4,,0.00,0,,202
2013-12-28,55,40,26,34,27,21,86,61,35,30.29,30.10,29.92,10,10,10,13,5,20,0.00,0,,182
2013-12-29,42,30,19,36,23,10,81,73,64,30.24,30.10,29.93,10,10,6,17,7,23,0.00,6,,347
2013-12-30,37,26,15,21,15,9,80,67,48,30.33,30.24,30.19,10,10,10,9,6,,0.00,0,,278
2013-12-31,53,36,19,28,21,16,86,59,30,30.36,30.27,30.14,10,10,8,16,5,24,0.00,0,,175